Lynchburg Regional Preston Glenn Field
KLYH : rendu visible

Aérodrome :











RETROUVEZ-NOUS SUR...

 
LOGIN :

S'inscrire | Disclaimer

   EN    FR    IT 

 









Légende :    VFR   VFR Marginal   IFR   IFR Intensif   IFR Très Intensif
Visi : 
Plafond : 
>= 8 km
>= 3000ft
5 à 8 km
1000 à 3000 ft
1500m à 5 km
500 à 1000 ft
800 à 1500m
200 à 500 ft
< 800m
< 200 ft
Symboles :   Orages  Brouillard  Fortes neiges  Fortes précipitations  Vent > 20 kt






- Altitude de l'aérodrome : 938 ft
- Code IATA : LYH


KLYH - Lynchburg Regional Preston Glenn Field

DERNIER METAR :
  • 222254Z VRB04KT 10SM CLR 12/06 A2997 RMK AO2 SLP147 T01170061

METARs EXPIRÉS :
  • 222154Z 26006KT 10SM CLR 13/08 A2994 RMK AO2 SLP139 T01330078
  • 222054Z 28007KT 10SM CLR 14/08 A2993 RMK AO2 SLP135 T01440083 53009

TAF KLYH
Valide du 22 à 18h jusqu'au 23 à 18h UTC


221744Z 2218/2318 23007KT P6SM OVC090
FM222100 27006KT P6SM BKN120
FM230300 VRB03KT P6SM SCT200
FM230900 00000KT 5SM BR SCT150
TEMPO 2309/2312 1SM BR BKN002
FM231400 11003KT P6SM -RA OVC035



MET'MAP, la Météo Aéronautique d'un coup d'oeil ! - Copyright ORBIFLY Décembre 2007 - Disclaimer

ORBIFLY MET'MAP TEAM :

Programmation & Développement : Alexandra Zaïnal
Conception & Développement : Baudouin d'Aumeries
Co-Programmation & Développement : Marc-Olivier Méhu
Soutien technique & logistique : Manuel Goepfert

Contact : metmap@orbifly.com




SOURCES & CREDITS :

   NOAA       Earth
Advisory